Terminal Aerodrome Forecast
Issued by NWS

Home | Current Version | Previous Version | Graphics & Text | Print | Product List | Glossary Off
Versions: 1 2 3 4 5 6 7 8 9 10 11 12 13 14 15 16 17 18 19 20 21 22 23 24 25 26 27 28 29 30 31

000
FTUS43 KLOT 031937 AAA
TAFDPA
TAF AMD
KDPA 031937Z 0320/0418 26010KT P6SM BKN050
     FM040000 04009KT P6SM VCTS SCT030 BKN050CB BKN250
     FM040200 06004KT 5SM BR SCT020 BKN040
     FM041400 07008KT P6SM SCT050=

USA.gov is the U.S. government's official web portal to all federal, state and local government web resources and services.